Time;durP1;ratioP1;P1;durP2;ratioP2;P2;SDS_P1;SDS_P2;PMS_P1;PMS_P2;Temp;Humidity;BMP_temperature;BMP_pressure;BME280_temperature;BME280_humidity;BME280_pressure;Samples;Min_cycle;Max_cycle;Signal;HPM_P1;HPM_P2
2023/04/03 00:00:59;;;;;;;4.85;2.25;;;;;;;;;;4920475;28;20837;-69
2023/04/03 00:03:24;;;;;;;5.78;2.33;;;;;;;;;;4918315;28;20070;-70
2023/04/03 00:05:50;;;;;;;6.40;2.33;;;;;;;;;;4920060;28;20046;-70
2023/04/03 00:08:15;;;;;;;4.97;2.40;;;;;;;;;;4891626;28;20074;-70
2023/04/03 00:10:40;;;;;;;4.40;2.30;;;;;;;;;;4919098;28;20039;-70
2023/04/03 00:13:06;;;;;;;3.95;2.08;;;;;;;;;;4918932;28;20047;-70
2023/04/03 00:15:32;;;;;;;4.28;2.30;;;;;;;;;;4918627;28;20035;-70
2023/04/03 00:17:59;;;;;;;5.38;2.35;;;;;;;;;;4918082;28;20196;-69
2023/04/03 00:20:27;;;;;;;5.97;2.45;;;;;;;;;;4920142;28;21854;-70
2023/04/03 00:22:54;;;;;;;4.95;2.90;;;;;;;;;;4919827;28;20344;-69
2023/04/03 00:25:20;;;;;;;4.10;2.20;;;;;;;;;;4916533;28;20043;-69
2023/04/03 00:27:45;;;;;;;4.85;2.47;;;;;;;;;;4918085;28;20471;-69
2023/04/03 00:30:12;;;;;;;4.80;2.50;;;;;;;;;;4919077;28;20055;-70
2023/04/03 00:32:38;;;;;;;5.38;2.65;;;;;;;;;;4918498;28;20225;-69
2023/04/03 00:35:03;;;;;;;5.38;2.58;;;;;;;;;;4913117;28;20565;-69
2023/04/03 00:37:28;;;;;;;3.97;2.50;;;;;;;;;;4941738;28;20055;-69
2023/04/03 00:39:54;;;;;;;3.58;2.30;;;;;;;;;;4919601;28;20062;-70
2023/04/03 00:42:20;;;;;;;5.40;2.40;;;;;;;;;;4917278;28;20322;-70
2023/04/03 00:44:45;;;;;;;3.67;2.33;;;;;;;;;;4912592;28;20040;-70
2023/04/03 00:47:15;;;;;;;4.38;2.42;;;;;;;;;;4929288;28;20031;-68
2023/04/03 00:49:42;;;;;;;6.93;3.28;;;;;;;;;;4918580;28;20621;-69
2023/04/03 00:52:09;;;;;;;3.67;2.08;;;;;;;;;;4918510;28;20040;-70
2023/04/03 00:54:37;;;;;;;4.13;2.33;;;;;;;;;;4919705;28;20078;-69
2023/04/03 00:57:02;;;;;;;4.47;2.90;;;;;;;;;;4919442;28;20112;-69
2023/04/03 00:59:34;;;;;;;6.20;2.63;;;;;;;;;;4947033;28;20193;-70
2023/04/03 01:02:01;;;;;;;4.82;2.30;;;;;;;;;;4918479;28;20044;-70
2023/04/03 01:04:35;;;;;;;7.82;3.13;;;;;;;;;;4919358;28;20203;-70
2023/04/03 01:07:06;;;;;;;4.13;2.33;;;;;;;;;;4919065;28;20664;-70
2023/04/03 01:09:31;;;;;;;4.80;2.30;;;;;;;;;;4947594;28;20043;-69
2023/04/03 01:12:17;;;;;;;7.80;2.55;;;;;;;;;;4916280;28;20074;-69
2023/04/03 01:14:46;;;;;;;5.47;2.70;;;;;;;;;;4918210;28;20069;-69
2023/04/03 01:17:28;;;;;;;4.78;2.33;;;;;;;;;;4947318;28;20039;-68
2023/04/03 01:20:02;;;;;;;6.75;2.58;;;;;;;;;;4917959;28;20031;-69
2023/04/03 01:22:31;;;;;;;4.22;2.70;;;;;;;;;;4915830;28;20043;-69
2023/04/03 01:24:57;;;;;;;7.38;2.80;;;;;;;;;;4917407;28;20089;-69
2023/04/03 01:27:22;;;;;;;5.68;2.90;;;;;;;;;;4918008;28;20041;-70
2023/04/03 01:29:47;;;;;;;5.03;2.30;;;;;;;;;;4904288;28;20031;-68
2023/04/03 01:32:13;;;;;;;4.90;2.50;;;;;;;;;;4914685;28;20138;-69
2023/04/03 01:34:38;;;;;;;4.68;2.90;;;;;;;;;;4918802;28;20034;-68
2023/04/03 01:37:06;;;;;;;6.43;2.90;;;;;;;;;;4901384;28;21900;-69
2023/04/03 01:39:31;;;;;;;7.20;2.90;;;;;;;;;;4917378;28;20035;-69
2023/04/03 01:41:56;;;;;;;7.32;2.80;;;;;;;;;;4918147;28;20541;-69
2023/04/03 01:44:23;;;;;;;6.53;3.22;;;;;;;;;;4916954;28;20164;-69
2023/04/03 01:46:49;;;;;;;4.20;2.50;;;;;;;;;;4918087;28;20035;-68
2023/04/03 01:49:14;;;;;;;6.88;3.00;;;;;;;;;;4917650;28;20036;-68
2023/04/03 01:51:40;;;;;;;5.57;2.95;;;;;;;;;;4917573;28;20493;-71
2023/04/03 01:54:05;;;;;;;5.10;2.80;;;;;;;;;;4912000;28;20078;-70
2023/04/03 01:56:30;;;;;;;5.03;2.75;;;;;;;;;;4918583;28;20484;-69
2023/04/03 01:58:58;;;;;;;6.28;2.90;;;;;;;;;;4916391;28;20066;-69
2023/04/03 02:01:23;;;;;;;5.18;2.70;;;;;;;;;;4918026;28;20417;-69
2023/04/03 02:03:51;;;;;;;4.60;2.47;;;;;;;;;;4910431;28;20043;-69
2023/04/03 02:06:16;;;;;;;7.28;3.05;;;;;;;;;;4918057;28;20039;-69
2023/04/03 02:08:42;;;;;;;5.83;2.97;;;;;;;;;;4915675;28;20093;-69
2023/04/03 02:11:07;;;;;;;5.63;2.55;;;;;;;;;;4920248;28;20516;-69
2023/04/03 02:13:32;;;;;;;7.63;3.15;;;;;;;;;;4920301;28;20055;-69
2023/04/03 02:16:05;;;;;;;6.18;2.80;;;;;;;;;;4951226;28;21888;-69
2023/04/03 02:18:30;;;;;;;5.47;2.50;;;;;;;;;;4921551;28;20377;-69
2023/04/03 02:20:55;;;;;;;3.95;2.60;;;;;;;;;;4921687;28;20061;-69
2023/04/03 02:23:21;;;;;;;5.40;2.47;;;;;;;;;;4920851;28;20120;-70
2023/04/03 02:25:46;;;;;;;6.27;3.13;;;;;;;;;;4921839;28;20046;-69
2023/04/03 02:28:11;;;;;;;6.22;2.60;;;;;;;;;;4918977;28;20138;-69
2023/04/03 02:30:36;;;;;;;5.75;3.20;;;;;;;;;;4914823;28;20313;-70
2023/04/03 02:33:02;;;;;;;5.78;2.67;;;;;;;;;;4902578;28;20056;-70
2023/04/03 02:35:27;;;;;;;8.70;3.53;;;;;;;;;;4903914;28;20040;-69
2023/04/03 02:37:55;;;;;;;7.40;2.90;;;;;;;;;;4920474;28;20082;-69
2023/04/03 02:40:20;;;;;;;8.68;3.72;;;;;;;;;;4950250;28;20500;-70
2023/04/03 02:42:46;;;;;;;8.93;3.58;;;;;;;;;;4913840;28;20043;-69
2023/04/03 02:45:11;;;;;;;7.22;3.05;;;;;;;;;;4932295;28;20565;-69
2023/04/03 02:47:36;;;;;;;7.90;3.00;;;;;;;;;;4920039;28;20067;-69
2023/04/03 02:50:02;;;;;;;6.43;3.17;;;;;;;;;;4914746;28;20058;-68
2023/04/03 02:52:27;;;;;;;9.70;3.55;;;;;;;;;;4919591;28;20407;-68
2023/04/03 02:54:52;;;;;;;5.72;3.20;;;;;;;;;;4921321;28;20044;-69
2023/04/03 02:57:19;;;;;;;9.05;3.40;;;;;;;;;;4930397;28;20378;-70
2023/04/03 02:59:46;;;;;;;7.75;2.88;;;;;;;;;;4920048;28;20070;-68
2023/04/03 03:02:12;;;;;;;5.70;3.33;;;;;;;;;;4920098;28;20035;-68
2023/04/03 03:04:37;;;;;;;7.65;2.97;;;;;;;;;;4920953;28;22335;-69
2023/04/03 03:07:02;;;;;;;9.80;3.58;;;;;;;;;;4916321;28;20119;-68
2023/04/03 03:09:32;;;;;;;6.63;3.13;;;;;;;;;;4920944;28;20476;-68
2023/04/03 03:11:58;;;;;;;10.52;3.17;;;;;;;;;;4919071;28;20078;-69
2023/04/03 03:14:23;;;;;;;7.90;3.45;;;;;;;;;;4919785;28;20055;-69
2023/04/03 03:16:49;;;;;;;9.07;2.78;;;;;;;;;;4920113;28;20043;-69
2023/04/03 03:19:14;;;;;;;6.45;3.00;;;;;;;;;;4919345;28;20053;-68
2023/04/03 03:21:39;;;;;;;7.93;3.20;;;;;;;;;;4913585;28;20073;-68
2023/04/03 03:24:05;;;;;;;9.25;3.47;;;;;;;;;;4919392;28;20036;-69
2023/04/03 03:26:30;;;;;;;9.57;3.20;;;;;;;;;;4914973;28;20093;-68
2023/04/03 03:28:55;;;;;;;7.78;3.10;;;;;;;;;;4919950;28;20169;-69
2023/04/03 03:31:21;;;;;;;8.10;3.20;;;;;;;;;;4918959;28;20043;-68
2023/04/03 03:33:46;;;;;;;6.13;3.00;;;;;;;;;;4919466;28;20051;-71
2023/04/03 03:36:11;;;;;;;7.15;3.33;;;;;;;;;;4931559;28;20039;-70
2023/04/03 03:38:37;;;;;;;9.43;3.30;;;;;;;;;;4919830;28;20039;-69
2023/04/03 03:41:02;;;;;;;10.52;4.07;;;;;;;;;;4926035;28;20074;-66
2023/04/03 03:43:27;;;;;;;9.35;3.80;;;;;;;;;;4919698;28;20039;-69
2023/04/03 03:45:53;;;;;;;10.80;4.10;;;;;;;;;;4917654;28;20073;-69
2023/04/03 03:48:19;;;;;;;9.40;3.38;;;;;;;;;;4913282;28;20043;-69
2023/04/03 03:50:44;;;;;;;7.22;3.45;;;;;;;;;;4920420;28;20125;-69
2023/04/03 03:53:10;;;;;;;6.80;3.03;;;;;;;;;;4918491;28;20043;-69
2023/04/03 03:55:37;;;;;;;9.07;3.60;;;;;;;;;;4918255;28;20047;-69
2023/04/03 03:58:03;;;;;;;7.25;3.72;;;;;;;;;;4919721;28;20039;-68
2023/04/03 04:00:31;;;;;;;7.95;3.50;;;;;;;;;;4919295;28;20040;-69
2023/04/03 04:02:56;;;;;;;10.38;4.00;;;;;;;;;;4918796;28;20061;-69
2023/04/03 04:05:21;;;;;;;10.07;4.47;;;;;;;;;;4919078;28;20040;-69
2023/04/03 04:07:49;;;;;;;10.55;3.95;;;;;;;;;;4918884;28;20092;-70
2023/04/03 04:10:14;;;;;;;10.05;3.60;;;;;;;;;;4918445;28;20047;-69
2023/04/03 04:12:39;;;;;;;11.13;3.97;;;;;;;;;;4918452;28;20062;-69
2023/04/03 04:15:05;;;;;;;11.13;4.03;;;;;;;;;;4917430;28;20142;-68
2023/04/03 04:17:35;;;;;;;12.88;4.10;;;;;;;;;;4918375;28;20045;-70
2023/04/03 04:20:02;;;;;;;9.70;3.80;;;;;;;;;;4926910;28;20059;-69
2023/04/03 04:22:27;;;;;;;11.60;4.40;;;;;;;;;;4918461;28;20035;-70
2023/04/03 04:24:55;;;;;;;10.45;3.75;;;;;;;;;;4911740;28;22560;-70
2023/04/03 04:27:20;;;;;;;9.35;3.97;;;;;;;;;;4918684;28;20046;-69
2023/04/03 04:29:45;;;;;;;13.27;4.75;;;;;;;;;;4919286;28;20038;-68
2023/04/03 04:32:11;;;;;;;10.07;4.20;;;;;;;;;;4918094;28;20175;-70
2023/04/03 04:34:38;;;;;;;9.27;5.18;;;;;;;;;;4917389;28;20046;-69
2023/04/03 04:37:03;;;;;;;13.95;4.90;;;;;;;;;;4919813;28;20055;-69
2023/04/03 04:39:29;;;;;;;11.55;5.60;;;;;;;;;;4918022;28;20404;-69
2023/04/03 04:41:54;;;;;;;16.15;5.70;;;;;;;;;;4920181;28;20592;-70
2023/04/03 04:44:20;;;;;;;9.43;5.07;;;;;;;;;;4919248;28;20035;-70
2023/04/03 04:46:45;;;;;;;14.55;6.40;;;;;;;;;;4919869;28;20043;-70
2023/04/03 04:49:10;;;;;;;14.52;6.65;;;;;;;;;;4919161;28;20341;-69
2023/04/03 04:51:38;;;;;;;14.07;6.50;;;;;;;;;;4918797;28;20286;-69
2023/04/03 04:54:03;;;;;;;9.45;5.70;;;;;;;;;;4917221;28;20152;-69
2023/04/03 04:56:31;;;;;;;12.90;5.85;;;;;;;;;;4918652;28;20044;-69
2023/04/03 04:58:56;;;;;;;12.10;5.85;;;;;;;;;;4917602;28;20101;-69
2023/04/03 05:01:21;;;;;;;12.40;6.18;;;;;;;;;;4930219;28;20047;-71
2023/04/03 05:03:47;;;;;;;11.05;5.65;;;;;;;;;;4917700;28;20059;-69
2023/04/03 05:06:15;;;;;;;12.63;5.30;;;;;;;;;;4918813;28;20133;-68
2023/04/03 05:08:40;;;;;;;9.65;5.53;;;;;;;;;;4918657;28;20035;-69
2023/04/03 05:11:05;;;;;;;13.82;5.20;;;;;;;;;;4919018;28;20050;-66
2023/04/03 05:13:31;;;;;;;10.40;5.38;;;;;;;;;;4911535;28;20070;-68
2023/04/03 05:15:56;;;;;;;7.95;5.05;;;;;;;;;;4931978;28;20039;-69
2023/04/03 05:18:21;;;;;;;11.98;5.15;;;;;;;;;;4917241;28;20044;-69
2023/04/03 05:20:48;;;;;;;10.75;5.72;;;;;;;;;;4918772;28;20087;-70
2023/04/03 05:23:16;;;;;;;13.75;5.60;;;;;;;;;;4911752;28;20044;-70
2023/04/03 05:25:43;;;;;;;9.95;4.90;;;;;;;;;;4948411;28;20051;-70
2023/04/03 05:28:09;;;;;;;12.18;5.18;;;;;;;;;;4918088;28;20043;-69
2023/04/03 05:30:34;;;;;;;12.48;4.50;;;;;;;;;;4917517;28;22063;-69
2023/04/03 05:33:00;;;;;;;11.02;4.00;;;;;;;;;;4947317;28;20104;-69
2023/04/03 05:35:25;;;;;;;11.75;4.30;;;;;;;;;;4918251;28;20043;-69
2023/04/03 05:37:53;;;;;;;8.75;4.20;;;;;;;;;;4929220;28;20078;-70
2023/04/03 05:40:18;;;;;;;10.05;3.83;;;;;;;;;;4917825;28;20416;-69
2023/04/03 05:42:44;;;;;;;12.88;4.32;;;;;;;;;;4918568;28;20047;-69
2023/04/03 05:45:12;;;;;;;10.38;5.00;;;;;;;;;;4917506;28;20400;-70
2023/04/03 05:47:37;;;;;;;15.65;4.90;;;;;;;;;;4921650;28;20062;-70
2023/04/03 05:50:05;;;;;;;8.63;4.00;;;;;;;;;;4951311;28;20719;-71
2023/04/03 05:52:32;;;;;;;6.70;3.80;;;;;;;;;;4920394;28;22184;-70
2023/04/03 05:54:58;;;;;;;9.93;4.07;;;;;;;;;;4950960;28;20392;-69
2023/04/03 05:57:23;;;;;;;9.85;3.75;;;;;;;;;;4921252;28;20081;-69
2023/04/03 05:59:49;;;;;;;9.80;3.85;;;;;;;;;;4929265;28;20031;-69
2023/04/03 06:02:22;;;;;;;12.38;4.00;;;;;;;;;;4920561;28;20616;-69
2023/04/03 06:04:48;;;;;;;13.27;4.82;;;;;;;;;;4915780;28;20534;-69
2023/04/03 06:07:19;;;;;;;10.50;3.83;;;;;;;;;;4921969;28;20043;-69
2023/04/03 06:09:49;;;;;;;13.23;3.97;;;;;;;;;;4921146;28;20042;-69
2023/04/03 06:12:14;;;;;;;11.77;3.85;;;;;;;;;;4921916;28;20039;-68
2023/04/03 06:14:40;;;;;;;11.15;4.40;;;;;;;;;;4920955;28;20373;-70
2023/04/03 06:17:08;;;;;;;12.35;4.25;;;;;;;;;;4914726;28;20039;-70
2023/04/03 06:19:33;;;;;;;10.05;3.75;;;;;;;;;;4919863;28;20441;-69
2023/04/03 06:21:59;;;;;;;8.77;3.55;;;;;;;;;;4921390;28;20205;-67
2023/04/03 06:24:27;;;;;;;9.25;3.53;;;;;;;;;;4928213;28;20086;-66
2023/04/03 06:26:52;;;;;;;9.75;3.90;;;;;;;;;;4921672;28;20038;-66
2023/04/03 06:29:19;;;;;;;9.88;3.40;;;;;;;;;;4931226;28;20565;-67
2023/04/03 06:31:45;;;;;;;9.82;3.30;;;;;;;;;;4921332;28;20039;-66
2023/04/03 06:34:13;;;;;;;6.47;3.75;;;;;;;;;;4920644;28;20200;-66
2023/04/03 06:36:38;;;;;;;9.82;3.90;;;;;;;;;;4920942;28;20043;-66
2023/04/03 06:39:03;;;;;;;10.27;3.60;;;;;;;;;;4920435;28;20758;-65
2023/04/03 06:41:29;;;;;;;13.05;3.95;;;;;;;;;;4921509;28;20070;-67
2023/04/03 06:43:56;;;;;;;7.97;3.22;;;;;;;;;;4921458;28;20760;-66
2023/04/03 06:46:22;;;;;;;7.63;3.50;;;;;;;;;;4920632;28;21550;-67
2023/04/03 06:48:47;;;;;;;11.80;3.42;;;;;;;;;;4919289;28;20039;-67
2023/04/03 06:51:22;;;;;;;7.13;2.92;;;;;;;;;;4920926;28;20039;-68
2023/04/03 06:53:48;;;;;;;8.25;2.95;;;;;;;;;;4920150;28;20062;-67
2023/04/03 06:56:13;;;;;;;8.80;2.90;;;;;;;;;;4921755;28;20092;-68
2023/04/03 06:58:41;;;;;;;7.65;3.45;;;;;;;;;;4919790;28;20089;-66
2023/04/03 07:01:07;;;;;;;8.23;2.97;;;;;;;;;;4920737;28;20093;-67
2023/04/03 07:03:33;;;;;;;9.10;2.90;;;;;;;;;;4920214;28;20039;-66
2023/04/03 07:05:58;;;;;;;6.70;3.42;;;;;;;;;;4942823;28;20063;-67
2023/04/03 07:08:25;;;;;;;5.68;3.28;;;;;;;;;;4920219;28;22017;-67
2023/04/03 07:10:51;;;;;;;8.35;3.10;;;;;;;;;;4921114;28;20039;-67
2023/04/03 07:13:16;;;;;;;6.82;2.53;;;;;;;;;;4920941;28;20047;-67
2023/04/03 07:15:41;;;;;;;11.15;2.85;;;;;;;;;;4920063;28;20847;-66
2023/04/03 07:18:07;;;;;;;5.45;2.35;;;;;;;;;;4920201;28;20636;-66
2023/04/03 07:20:32;;;;;;;6.90;2.58;;;;;;;;;;4914857;28;20637;-67
2023/04/03 07:23:02;;;;;;;6.43;2.30;;;;;;;;;;4933446;28;20101;-67
2023/04/03 07:25:28;;;;;;;4.38;2.03;;;;;;;;;;4920229;28;20412;-68
2023/04/03 07:27:54;;;;;;;6.93;2.85;;;;;;;;;;4927332;28;20055;-66
2023/04/03 07:30:19;;;;;;;6.95;2.25;;;;;;;;;;4920706;28;20469;-65
2023/04/03 07:32:45;;;;;;;5.82;2.33;;;;;;;;;;4919078;28;20054;-66
2023/04/03 07:35:13;;;;;;;5.03;2.15;;;;;;;;;;4920869;28;20127;-66
2023/04/03 07:37:38;;;;;;;7.03;2.63;;;;;;;;;;4914697;28;20486;-66
2023/04/03 07:40:04;;;;;;;5.70;2.40;;;;;;;;;;4920267;28;20031;-65
2023/04/03 07:42:30;;;;;;;6.28;2.10;;;;;;;;;;4919963;28;20110;-64
2023/04/03 07:44:56;;;;;;;5.03;2.50;;;;;;;;;;4931411;28;20043;-65
2023/04/03 07:47:21;;;;;;;7.53;2.13;;;;;;;;;;4933170;28;20043;-65
2023/04/03 07:49:49;;;;;;;4.43;2.00;;;;;;;;;;4919935;28;20039;-65
2023/04/03 07:52:16;;;;;;;5.22;2.00;;;;;;;;;;4916786;28;20412;-65
2023/04/03 07:54:42;;;;;;;4.15;1.92;;;;;;;;;;4919855;28;20043;-66
2023/04/03 07:57:07;;;;;;;5.07;1.90;;;;;;;;;;4913449;28;20071;-65
2023/04/03 07:59:35;;;;;;;4.30;1.80;;;;;;;;;;4914596;28;20047;-65
2023/04/03 08:02:00;;;;;;;4.90;1.80;;;;;;;;;;4949752;28;20222;-66
2023/04/03 08:04:28;;;;;;;5.93;2.33;;;;;;;;;;4943908;28;20484;-65
2023/04/03 08:06:53;;;;;;;4.32;1.73;;;;;;;;;;4919760;28;20047;-65
2023/04/03 08:09:19;;;;;;;4.90;1.80;;;;;;;;;;4918825;28;20039;-65
2023/04/03 08:11:45;;;;;;;5.07;2.10;;;;;;;;;;4919146;28;20602;-65
2023/04/03 08:14:16;;;;;;;6.00;1.85;;;;;;;;;;4918464;28;20108;-64
2023/04/03 08:16:42;;;;;;;5.45;1.98;;;;;;;;;;4918696;28;20134;-66
2023/04/03 08:19:07;;;;;;;5.05;1.90;;;;;;;;;;4916587;28;20133;-67
2023/04/03 08:21:33;;;;;;;7.15;2.00;;;;;;;;;;4898884;28;20046;-64
2023/04/03 08:23:58;;;;;;;6.10;1.88;;;;;;;;;;4918725;28;20049;-66
2023/04/03 08:26:26;;;;;;;5.40;1.92;;;;;;;;;;4918459;28;20059;-67
2023/04/03 08:28:54;;;;;;;4.93;1.80;;;;;;;;;;4919910;28;20039;-64
2023/04/03 08:31:22;;;;;;;5.28;2.03;;;;;;;;;;4920423;28;20816;-65
2023/04/03 08:33:47;;;;;;;8.48;1.90;;;;;;;;;;4918695;28;20189;-64
2023/04/03 08:36:18;;;;;;;4.38;2.05;;;;;;;;;;4919102;28;20070;-65
2023/04/03 08:38:43;;;;;;;6.20;2.13;;;;;;;;;;4916322;28;20451;-65
2023/04/03 08:41:12;;;;;;;4.45;1.90;;;;;;;;;;4947461;28;20040;-64
2023/04/03 08:43:55;;;;;;;6.00;2.03;;;;;;;;;;4919054;28;20043;-65
2023/04/03 08:46:22;;;;;;;4.43;1.85;;;;;;;;;;4913004;28;20508;-65
2023/04/03 08:48:48;;;;;;;4.22;1.73;;;;;;;;;;4947877;28;20070;-64
2023/04/03 08:51:15;;;;;;;4.30;1.48;;;;;;;;;;4918557;28;20050;-65
2023/04/03 08:53:43;;;;;;;4.93;1.70;;;;;;;;;;4917959;28;20046;-65
2023/04/03 08:56:09;;;;;;;5.10;1.70;;;;;;;;;;4948256;28;20127;-65
2023/04/03 08:58:47;;;;;;;3.30;1.45;;;;;;;;;;4916832;28;20035;-64
2023/04/03 09:01:33;;;;;;;5.40;1.60;;;;;;;;;;4948058;28;20512;-65
2023/04/03 09:04:00;;;;;;;3.53;1.50;;;;;;;;;;4917663;28;20509;-66
2023/04/03 09:06:28;;;;;;;3.30;1.20;;;;;;;;;;4912341;28;20597;-65
2023/04/03 09:08:56;;;;;;;4.57;1.42;;;;;;;;;;4911910;28;20661;-66
2023/04/03 09:11:29;;;;;;;4.85;1.52;;;;;;;;;;4907418;28;20071;-65
2023/04/03 09:13:54;;;;;;;3.15;1.42;;;;;;;;;;4916258;28;20134;-71
2023/04/03 09:16:26;;;;;;;3.42;1.27;;;;;;;;;;4908499;28;20082;-64
2023/04/03 09:19:01;;;;;;;3.28;1.20;;;;;;;;;;4914512;28;20123;-63
2023/04/03 09:21:34;;;;;;;5.18;1.30;;;;;;;;;;4916153;28;20059;-68
2023/04/03 09:24:01;;;;;;;3.30;1.30;;;;;;;;;;4897930;28;20040;-70
2023/04/03 09:26:30;;;;;;;4.25;1.58;;;;;;;;;;4912820;28;22331;-66
2023/04/03 09:28:57;;;;;;;2.83;1.27;;;;;;;;;;4913918;28;20821;-68
2023/04/03 09:31:26;;;;;;;6.00;1.48;;;;;;;;;;4911753;28;20188;-65
2023/04/03 09:33:59;;;;;;;4.28;1.35;;;;;;;;;;4912698;28;20147;-66
2023/04/03 09:36:38;;;;;;;6.13;1.17;;;;;;;;;;4913526;28;20070;-64
2023/04/03 09:39:10;;;;;;;3.40;1.05;;;;;;;;;;4914002;28;20443;-64
2023/04/03 09:41:35;;;;;;;5.13;1.30;;;;;;;;;;4913561;28;20031;-67
2023/04/03 09:44:17;;;;;;;2.60;1.15;;;;;;;;;;4908579;28;20048;-64
2023/04/03 09:46:42;;;;;;;2.83;1.20;;;;;;;;;;4914223;28;20141;-64
2023/04/03 09:49:10;;;;;;;6.35;1.30;;;;;;;;;;4915505;28;20261;-65
2023/04/03 09:51:38;;;;;;;3.95;1.10;;;;;;;;;;4915037;28;20101;-63
2023/04/03 09:54:23;;;;;;;5.10;1.15;;;;;;;;;;4913782;28;20062;-64
2023/04/03 09:56:55;;;;;;;1.85;1.08;;;;;;;;;;4926271;28;20036;-65
2023/04/03 09:59:23;;;;;;;4.55;1.30;;;;;;;;;;4944569;28;20089;-64
2023/04/03 10:02:02;;;;;;;2.58;1.13;;;;;;;;;;4915293;28;20054;-64
2023/04/03 10:04:37;;;;;;;4.07;1.15;;;;;;;;;;4915235;28;20047;-64
2023/04/03 10:07:02;;;;;;;4.05;1.20;;;;;;;;;;4915465;28;20201;-64
2023/04/03 10:09:31;;;;;;;3.78;1.25;;;;;;;;;;4917727;28;20104;-64
2023/04/03 10:11:56;;;;;;;4.65;1.40;;;;;;;;;;4912187;28;20109;-64
2023/04/03 10:14:21;;;;;;;3.45;1.30;;;;;;;;;;4925025;28;20476;-65
2023/04/03 10:17:08;;;;;;;2.75;1.20;;;;;;;;;;4911591;28;20696;-65
2023/04/03 10:19:41;;;;;;;3.35;1.38;;;;;;;;;;4900849;28;20074;-65
2023/04/03 10:22:18;;;;;;;2.88;1.08;;;;;;;;;;4912203;28;20144;-65
2023/04/03 10:24:47;;;;;;;5.05;1.73;;;;;;;;;;4912652;28;20158;-64
2023/04/03 10:27:22;;;;;;;4.20;1.30;;;;;;;;;;4916774;28;20636;-65
2023/04/03 10:29:55;;;;;;;4.10;1.30;;;;;;;;;;4944334;28;20074;-64
2023/04/03 10:32:21;;;;;;;2.28;1.10;;;;;;;;;;4915709;28;20157;-65
2023/04/03 10:34:47;;;;;;;4.47;1.20;;;;;;;;;;4917810;28;20124;-64
2023/04/03 10:37:28;;;;;;;3.05;1.20;;;;;;;;;;4915720;28;20039;-64
2023/04/03 10:40:12;;;;;;;3.85;1.38;;;;;;;;;;4916573;28;20046;-64
2023/04/03 10:42:56;;;;;;;5.10;1.65;;;;;;;;;;4911925;28;20048;-64
2023/04/03 10:45:22;;;;;;;2.35;1.10;;;;;;;;;;4931977;28;20116;-65
2023/04/03 10:48:07;;;;;;;3.97;1.10;;;;;;;;;;4914971;28;20043;-65
2023/04/03 10:50:53;;;;;;;3.15;1.27;;;;;;;;;;4919923;28;20057;-66
2023/04/03 10:53:34;;;;;;;2.72;1.10;;;;;;;;;;4917295;28;20050;-64
2023/04/03 10:55:59;;;;;;;3.35;1.30;;;;;;;;;;4913767;28;20063;-64
2023/04/03 10:58:35;;;;;;;2.63;1.15;;;;;;;;;;4917847;28;20063;-65
2023/04/03 11:01:05;;;;;;;3.10;1.10;;;;;;;;;;4918362;28;20516;-63
2023/04/03 11:03:35;;;;;;;2.35;0.98;;;;;;;;;;4932438;28;20515;-63
2023/04/03 11:06:02;;;;;;;4.28;1.35;;;;;;;;;;4919369;28;22295;-63
2023/04/03 11:08:41;;;;;;;4.03;1.25;;;;;;;;;;4919671;28;20047;-64
2023/04/03 11:11:09;;;;;;;1.67;1.10;;;;;;;;;;4916424;28;20039;-64
2023/04/03 11:13:34;;;;;;;2.25;0.93;;;;;;;;;;4916665;28;20569;-65
2023/04/03 11:16:02;;;;;;;1.65;1.00;;;;;;;;;;4920658;28;20093;-65
2023/04/03 11:18:37;;;;;;;1.48;0.80;;;;;;;;;;4919481;28;20047;-65
2023/04/03 11:21:12;;;;;;;2.20;0.98;;;;;;;;;;4918045;28;20040;-65
2023/04/03 11:23:40;;;;;;;2.50;1.10;;;;;;;;;;4917751;28;20046;-67
2023/04/03 11:26:11;;;;;;;2.35;1.00;;;;;;;;;;4915711;28;20278;-65
2023/04/03 11:28:39;;;;;;;3.38;1.10;;;;;;;;;;4909870;28;20040;-66
2023/04/03 11:31:22;;;;;;;3.35;1.45;;;;;;;;;;4915891;28;20385;-67
2023/04/03 11:34:06;;;;;;;3.42;1.10;;;;;;;;;;4909943;28;20063;-66
2023/04/03 11:36:33;;;;;;;3.28;1.17;;;;;;;;;;4916409;28;20281;-65
2023/04/03 11:39:09;;;;;;;2.88;1.17;;;;;;;;;;4915271;28;20626;-65
2023/04/03 11:41:35;;;;;;;2.85;1.10;;;;;;;;;;4913883;28;20844;-64
2023/04/03 11:44:26;;;;;;;2.40;0.90;;;;;;;;;;4916964;28;20051;-65
2023/04/03 11:46:56;;;;;;;2.10;0.73;;;;;;;;;;4915394;28;21956;-65
2023/04/03 11:49:40;;;;;;;5.05;0.95;;;;;;;;;;4917236;28;20093;-64
2023/04/03 11:52:09;;;;;;;4.75;1.08;;;;;;;;;;4914478;28;20071;-65
2023/04/03 11:54:36;;;;;;;2.22;1.10;;;;;;;;;;4911040;28;20058;-65
2023/04/03 11:57:21;;;;;;;2.10;1.00;;;;;;;;;;4917036;28;20226;-64
2023/04/03 11:59:47;;;;;;;2.30;0.90;;;;;;;;;;4917876;28;20055;-66
2023/04/03 12:02:32;;;;;;;3.30;1.00;;;;;;;;;;4921769;28;20046;-64
2023/04/03 12:05:16;;;;;;;5.20;1.10;;;;;;;;;;4915998;28;20055;-65
2023/04/03 12:07:42;;;;;;;2.90;1.02;;;;;;;;;;4916558;28;22296;-64
2023/04/03 12:10:16;;;;;;;2.47;0.98;;;;;;;;;;4927506;28;20128;-64
2023/04/03 12:12:56;;;;;;;2.55;1.00;;;;;;;;;;4914805;28;20047;-64
2023/04/03 12:15:42;;;;;;;2.50;0.80;;;;;;;;;;4912165;28;20039;-65
2023/04/03 12:18:26;;;;;;;2.90;0.90;;;;;;;;;;4916766;28;20058;-64
2023/04/03 12:20:53;;;;;;;4.03;1.20;;;;;;;;;;4916106;28;20059;-64
2023/04/03 12:23:28;;;;;;;2.55;0.75;;;;;;;;;;4928745;28;20308;-63
2023/04/03 12:26:02;;;;;;;2.55;0.93;;;;;;;;;;4915802;28;20120;-64
2023/04/03 12:28:28;;;;;;;1.73;0.88;;;;;;;;;;4946324;28;20169;-64
2023/04/03 12:30:54;;;;;;;2.78;1.05;;;;;;;;;;4915771;28;20162;-65
2023/04/03 12:33:45;;;;;;;4.55;0.90;;;;;;;;;;4913347;28;20066;-65
2023/04/03 12:36:18;;;;;;;3.40;0.80;;;;;;;;;;4914213;28;20047;-64
2023/04/03 12:38:56;;;;;;;2.63;0.90;;;;;;;;;;4908891;28;20461;-65
2023/04/03 12:41:30;;;;;;;3.58;1.10;;;;;;;;;;4914390;28;20035;-64
2023/04/03 12:44:17;;;;;;;2.17;1.00;;;;;;;;;;4911180;28;20038;-64
2023/04/03 12:46:47;;;;;;;3.03;1.10;;;;;;;;;;4942488;28;20037;-65
2023/04/03 12:49:35;;;;;;;4.45;0.98;;;;;;;;;;4916593;28;20118;-65
2023/04/03 12:52:02;;;;;;;4.35;0.90;;;;;;;;;;4915264;28;20062;-65
2023/04/03 12:54:30;;;;;;;3.85;1.08;;;;;;;;;;4917396;28;20074;-64
2023/04/03 12:57:14;;;;;;;1.50;0.80;;;;;;;;;;4932097;28;20043;-64
2023/04/03 12:59:46;;;;;;;5.20;1.00;;;;;;;;;;4913147;28;20050;-65
2023/04/03 13:02:28;;;;;;;2.20;1.02;;;;;;;;;;4979311;28;20043;-65
2023/04/03 13:04:53;;;;;;;;;;;;;;;;;;4919483;28;20042;-65
2023/04/03 13:07:28;;;;;;;2.37;0.90;;;;;;;;;;4918581;28;20433;-64
2023/04/03 13:10:02;;;;;;;2.40;1.00;;;;;;;;;;4932892;28;20282;-66
2023/04/03 13:12:28;;;;;;;2.13;1.00;;;;;;;;;;4918144;28;20058;-65
2023/04/03 13:15:12;;;;;;;3.63;0.90;;;;;;;;;;4917696;28;20066;-66
2023/04/03 13:17:41;;;;;;;3.53;1.00;;;;;;;;;;4918670;28;21863;-66
2023/04/03 13:20:15;;;;;;;2.22;0.90;;;;;;;;;;4919278;28;20050;-66
2023/04/03 13:22:48;;;;;;;2.25;0.85;;;;;;;;;;4918970;28;20058;-66
2023/04/03 13:25:15;;;;;;;4.05;1.00;;;;;;;;;;4917813;28;20092;-66
2023/04/03 13:27:43;;;;;;;2.75;0.80;;;;;;;;;;4916094;28;20544;-66
2023/04/03 13:30:20;;;;;;;3.67;1.10;;;;;;;;;;4919277;28;20118;-67
2023/04/03 13:32:45;;;;;;;2.97;1.02;;;;;;;;;;4916870;28;20482;-65
2023/04/03 13:35:30;;;;;;;3.95;1.00;;;;;;;;;;4916297;28;21876;-64
2023/04/03 13:37:57;;;;;;;2.38;0.88;;;;;;;;;;4900766;28;20043;-66
2023/04/03 13:40:23;;;;;;;3.67;1.27;;;;;;;;;;4918114;28;20039;-65
2023/04/03 13:42:58;;;;;;;2.55;1.40;;;;;;;;;;4910297;28;20046;-67
2023/04/03 13:45:27;;;;;;;1.83;1.05;;;;;;;;;;4914071;28;20424;-66
2023/04/03 13:48:07;;;;;;;3.08;1.15;;;;;;;;;;4917827;28;20223;-66
2023/04/03 13:50:32;;;;;;;3.15;1.08;;;;;;;;;;4917609;28;20082;-65
2023/04/03 13:53:02;;;;;;;3.25;1.00;;;;;;;;;;4917255;28;21310;-66
2023/04/03 13:55:30;;;;;;;2.75;1.00;;;;;;;;;;4911908;28;20039;-67
2023/04/03 13:58:21;;;;;;;2.50;1.00;;;;;;;;;;4916206;28;20035;-65
2023/04/03 14:00:50;;;;;;;3.42;1.00;;;;;;;;;;4919107;28;20031;-66
2023/04/03 14:03:32;;;;;;;2.78;1.10;;;;;;;;;;4916871;28;20084;-66
2023/04/03 14:05:57;;;;;;;;;;;;;;;;;;4917303;28;20036;-65
2023/04/03 14:08:22;;;;;;;3.33;1.13;;;;;;;;;;4921162;28;19919;-66
2023/04/03 14:10:49;;;;;;;2.72;1.20;;;;;;;;;;4919580;28;20867;-65
2023/04/03 14:13:15;;;;;;;3.42;1.35;;;;;;;;;;4920202;28;20528;-65
2023/04/03 14:15:42;;;;;;;4.07;1.20;;;;;;;;;;4947651;28;20331;-67
2023/04/03 14:18:10;;;;;;;3.45;1.00;;;;;;;;;;4918887;28;20043;-66
2023/04/03 14:20:35;;;;;;;2.60;1.13;;;;;;;;;;4920019;28;20066;-65
2023/04/03 14:23:00;;;;;;;3.47;1.00;;;;;;;;;;4913075;28;20356;-67
2023/04/03 14:25:26;;;;;;;5.65;1.52;;;;;;;;;;4920067;28;20638;-67
2023/04/03 14:27:53;;;;;;;4.07;1.20;;;;;;;;;;4918095;28;21546;-67
2023/04/03 14:30:26;;;;;;;2.65;1.20;;;;;;;;;;4920237;28;20054;-67
2023/04/03 14:32:52;;;;;;;4.03;1.30;;;;;;;;;;4919392;28;20237;-66
2023/04/03 14:35:18;;;;;;;2.83;1.17;;;;;;;;;;4917408;28;20039;-67
2023/04/03 14:37:46;;;;;;;3.25;1.20;;;;;;;;;;4948406;28;20528;-67
2023/04/03 14:40:16;;;;;;;3.55;1.50;;;;;;;;;;4915304;28;20042;-66
2023/04/03 14:42:41;;;;;;;3.97;1.50;;;;;;;;;;4917950;28;20051;-66
2023/04/03 14:45:10;;;;;;;2.80;1.20;;;;;;;;;;4998526;28;20031;-65
2023/04/03 14:47:39;;;;;;;4.88;1.35;;;;;;;;;;4912843;28;20127;-68
2023/04/03 14:50:07;;;;;;;4.28;1.40;;;;;;;;;;4928963;28;20273;-66